Time;durP1;ratioP1;P1;durP2;ratioP2;P2;SDS_P1;SDS_P2;PMS_P1;PMS_P2;Temp;Humidity;BMP_temperature;BMP_pressure;BME280_temperature;BME280_humidity;BME280_pressure;Samples;Min_cycle;Max_cycle;Signal;HPM_P1;HPM_P2
2024/01/24 00:02:12;;;;;;;29.30;6.65;;;14.50;67.50;;;;;;5035057;28;20052;-77
2024/01/24 00:04:38;;;;;;;25.27;6.57;;;14.50;67.40;;;;;;5023085;28;20040;-77
2024/01/24 00:07:04;;;;;;;31.30;7.93;;;14.50;67.50;;;;;;5033336;28;20260;-75
2024/01/24 00:09:32;;;;;;;28.27;7.30;;;14.50;67.50;;;;;;5017105;28;20492;-76
2024/01/24 00:11:59;;;;;;;23.50;6.22;;;14.50;67.50;;;;;;5021757;28;20112;-76
2024/01/24 00:14:25;;;;;;;28.25;6.72;;;14.50;67.50;;;;;;5004974;28;20067;-76
2024/01/24 00:16:52;;;;;;;24.67;6.50;;;14.50;67.40;;;;;;5039723;28;20040;-74
2024/01/24 00:19:18;;;;;;;24.33;7.65;;;14.50;67.40;;;;;;5021910;28;20037;-78
2024/01/24 00:21:44;;;;;;;19.73;5.55;;;14.50;67.50;;;;;;5003161;28;20040;-75
2024/01/24 00:24:11;;;;;;;26.45;6.72;;;14.50;67.50;;;;;;5040243;28;20032;-74
2024/01/24 00:26:38;;;;;;;31.58;7.53;;;14.40;67.30;;;;;;5003796;28;20160;-76
2024/01/24 00:29:04;;;;;;;29.15;7.43;;;14.50;67.40;;;;;;4998082;28;20025;-76
2024/01/24 00:31:30;;;;;;;29.20;6.43;;;14.50;67.40;;;;;;5039880;28;20094;-74
2024/01/24 00:33:57;;;;;;;26.23;7.03;;;14.40;67.20;;;;;;5012191;28;20036;-75
2024/01/24 00:36:23;;;;;;;25.20;6.38;;;14.40;67.20;;;;;;5019001;28;20083;-75
2024/01/24 00:38:50;;;;;;;30.95;7.53;;;14.40;67.20;;;;;;5028651;28;20022;-74
2024/01/24 00:41:16;;;;;;;31.35;6.88;;;14.40;67.30;;;;;;5008260;28;20033;-74
2024/01/24 00:43:42;;;;;;;27.60;7.18;;;14.40;67.30;;;;;;5029355;28;20116;-75
2024/01/24 00:46:08;;;;;;;25.88;7.93;;;14.40;67.20;;;;;;5020809;28;20515;-76
2024/01/24 00:48:34;;;;;;;22.42;6.50;;;14.40;67.20;;;;;;5039675;28;20067;-76
2024/01/24 00:51:00;;;;;;;34.28;8.98;;;14.30;67.10;;;;;;5039811;28;20033;-76
2024/01/24 00:53:29;;;;;;;28.73;9.05;;;14.30;67.10;;;;;;5042264;28;20556;-76
2024/01/24 00:55:56;;;;;;;32.47;7.55;;;14.30;67.10;;;;;;5031904;28;20029;-77
2024/01/24 00:58:22;;;;;;;32.53;8.40;;;14.30;67.10;;;;;;5036636;28;20025;-76
2024/01/24 01:00:48;;;;;;;31.75;8.85;;;14.30;67.10;;;;;;5048189;28;20020;-76
2024/01/24 01:03:15;;;;;;;34.83;9.75;;;14.30;67.10;;;;;;5039836;28;20116;-76
2024/01/24 01:05:41;;;;;;;34.10;8.75;;;14.20;66.90;;;;;;5038312;28;20112;-77
2024/01/24 01:08:07;;;;;;;35.00;8.95;;;14.20;67.00;;;;;;5017506;28;20113;-76
2024/01/24 01:10:33;;;;;;;29.35;8.10;;;14.20;67.00;;;;;;5036953;28;20033;-76
2024/01/24 01:12:59;;;;;;;32.83;8.13;;;14.20;67.00;;;;;;5038986;28;20044;-77
2024/01/24 01:15:25;;;;;;;29.25;8.05;;;14.20;67.10;;;;;;5019735;28;20218;-78
2024/01/24 01:17:52;;;;;;;34.97;10.10;;;14.20;67.10;;;;;;5039922;28;20387;-77
2024/01/24 01:20:21;;;;;;;29.50;8.45;;;14.20;67.10;;;;;;5017144;28;20032;-76
2024/01/24 01:22:47;;;;;;;34.75;10.35;;;14.10;66.90;;;;;;5019408;28;20040;-76
2024/01/24 01:25:14;;;;;;;34.45;8.63;;;14.10;67.00;;;;;;5037909;28;20025;-77
2024/01/24 01:27:40;;;;;;;34.95;9.93;;;14.10;67.00;;;;;;5021222;28;20639;-77
2024/01/24 01:30:07;;;;;;;44.97;8.82;;;14.10;67.00;;;;;;5020846;28;20083;-77
2024/01/24 01:32:33;;;;;;;35.45;9.00;;;14.10;67.00;;;;;;5040628;28;20123;-78
2024/01/24 01:34:59;;;;;;;35.28;9.73;;;14.10;67.00;;;;;;5024959;28;20033;-77
2024/01/24 01:37:25;;;;;;;33.63;8.25;;;14.10;67.50;;;;;;5021575;28;20113;-77
2024/01/24 01:39:52;;;;;;;33.85;7.38;;;14.00;66.80;;;;;;5041143;28;20276;-77
2024/01/24 01:42:18;;;;;;;32.55;8.63;;;14.00;66.80;;;;;;5041287;28;20184;-78
2024/01/24 01:44:49;;;;;;;31.25;9.57;;;14.00;66.80;;;;;;5041094;28;20033;-77
2024/01/24 01:47:16;;;;;;;32.20;10.13;;;14.00;66.80;;;;;;4995692;28;20053;-76
2024/01/24 01:49:45;;;;;;;43.22;9.48;;;14.00;66.80;;;;;;5038519;28;20079;-76
2024/01/24 01:52:12;;;;;;;38.55;9.25;;;14.00;66.70;;;;;;5040515;28;20394;-77
2024/01/24 01:54:42;;;;;;;34.70;10.27;;;13.90;66.50;;;;;;5042608;28;20695;-77
2024/01/24 01:57:11;;;;;;;29.10;8.02;;;13.90;66.50;;;;;;5020725;28;20499;-76
2024/01/24 01:59:44;;;;;;;30.42;8.32;;;13.90;66.50;;;;;;5023155;28;20039;-77
2024/01/24 02:02:11;;;;;;;35.25;9.68;;;13.90;66.50;;;;;;5021069;28;20045;-77
2024/01/24 02:04:37;;;;;;;32.67;9.02;;;13.90;66.50;;;;;;5040289;28;20021;-77
2024/01/24 02:07:06;;;;;;;32.45;9.38;;;13.90;66.50;;;;;;5038322;28;20666;-76
2024/01/24 02:09:32;;;;;;;40.75;10.77;;;13.80;66.40;;;;;;5022080;28;20488;-77
2024/01/24 02:11:58;;;;;;;31.80;9.25;;;13.80;66.40;;;;;;5039497;28;20465;-78
2024/01/24 02:14:24;;;;;;;29.55;8.73;;;13.80;66.40;;;;;;5021915;28;20053;-77
2024/01/24 02:16:50;;;;;;;40.38;12.13;;;13.80;66.40;;;;;;5022301;28;20091;-76
2024/01/24 02:19:16;;;;;;;33.88;10.55;;;13.80;66.40;;;;;;5024792;28;20052;-76
2024/01/24 02:21:42;;;;;;;32.47;9.15;;;13.80;66.40;;;;;;5040663;28;20075;-77
2024/01/24 02:24:12;;;;;;;34.15;10.02;;;13.70;66.30;;;;;;5022466;28;20024;-76
2024/01/24 02:26:38;;;;;;;35.60;8.95;;;13.70;66.20;;;;;;5034736;28;20087;-76
2024/01/24 02:29:05;;;;;;;35.40;9.48;;;13.70;66.30;;;;;;5036800;28;20033;-77
2024/01/24 02:31:31;;;;;;;34.35;8.50;;;13.70;66.30;;;;;;5042640;28;20029;-75
2024/01/24 02:33:57;;;;;;;37.75;10.05;;;13.70;66.30;;;;;;5018172;28;20630;-76
2024/01/24 02:36:23;;;;;;;40.78;10.50;;;13.70;66.30;;;;;;5022483;28;20594;-76
2024/01/24 02:38:51;;;;;;;38.65;9.95;;;13.70;66.30;;;;;;5036896;28;20028;-77
2024/01/24 02:41:19;;;;;;;33.03;8.60;;;13.70;66.30;;;;;;5039595;28;20075;-76
2024/01/24 02:43:45;;;;;;;35.08;9.27;;;13.70;66.30;;;;;;5037858;28;20037;-76
2024/01/24 02:46:11;;;;;;;32.72;9.20;;;13.60;66.10;;;;;;5023017;28;20420;-76
2024/01/24 02:48:37;;;;;;;37.70;10.25;;;13.60;66.10;;;;;;5011336;28;20283;-76
2024/01/24 02:51:02;;;;;;;32.25;7.95;;;13.60;66.10;;;;;;5031568;28;20055;-77
2024/01/24 02:53:28;;;;;;;31.80;8.95;;;13.60;66.20;;;;;;5046022;28;20029;-75
2024/01/24 02:55:54;;;;;;;36.47;7.65;;;13.50;66.00;;;;;;5047216;28;20045;-76
2024/01/24 02:58:20;;;;;;;30.10;7.85;;;13.50;66.00;;;;;;5026997;28;20547;-76
2024/01/24 03:00:46;;;;;;;37.60;10.20;;;13.50;66.00;;;;;;5051962;28;20024;-76
2024/01/24 03:03:12;;;;;;;31.80;8.85;;;13.50;66.00;;;;;;5049791;28;20033;-75
2024/01/24 03:05:38;;;;;;;27.50;7.00;;;13.40;65.90;;;;;;5044174;28;20021;-76
2024/01/24 03:08:05;;;;;;;31.38;7.95;;;13.50;66.00;;;;;;5042831;28;20127;-76
2024/01/24 03:10:31;;;;;;;35.78;9.60;;;13.40;65.90;;;;;;5024615;28;20033;-76
2024/01/24 03:12:57;;;;;;;29.17;7.72;;;13.40;65.90;;;;;;5041522;28;20041;-77
2024/01/24 03:15:23;;;;;;;36.40;10.00;;;13.40;65.90;;;;;;5043078;28;20025;-77
2024/01/24 03:17:48;;;;;;;36.20;9.75;;;13.40;65.90;;;;;;5028357;28;20039;-76
2024/01/24 03:20:14;;;;;;;30.83;8.13;;;13.30;65.80;;;;;;5027607;28;20116;-76
2024/01/24 03:22:41;;;;;;;30.02;8.90;;;13.30;65.80;;;;;;5025144;28;20044;-76
2024/01/24 03:25:07;;;;;;;30.92;8.68;;;13.30;65.80;;;;;;5040424;28;20027;-77
2024/01/24 03:27:34;;;;;;;34.80;9.73;;;13.30;65.80;;;;;;5026644;28;20036;-77
2024/01/24 03:30:01;;;;;;;29.20;8.77;;;13.30;65.90;;;;;;5022572;28;20450;-78
2024/01/24 03:32:27;;;;;;;33.92;9.35;;;13.30;65.90;;;;;;5016148;28;20116;-75
2024/01/24 03:34:57;;;;;;;32.17;7.97;;;13.30;65.90;;;;;;5045255;28;20044;-77
2024/01/24 03:37:23;;;;;;;40.45;8.77;;;13.30;66.50;;;;;;5045386;28;20115;-76
2024/01/24 03:39:49;;;;;;;34.55;9.93;;;13.30;65.90;;;;;;5048277;28;20082;-76
2024/01/24 03:42:15;;;;;;;30.50;9.60;;;13.30;65.90;;;;;;5027638;28;20037;-76
2024/01/24 03:44:41;;;;;;;33.85;9.25;;;13.30;65.90;;;;;;5046350;28;20041;-76
2024/01/24 03:47:07;;;;;;;36.72;10.20;;;13.30;65.90;;;;;;5044385;28;20045;-76
2024/01/24 03:49:33;;;;;;;34.42;9.65;;;13.30;65.90;;;;;;5029089;28;20341;-76
2024/01/24 03:51:59;;;;;;;34.70;10.52;;;13.20;65.80;;;;;;5042062;28;20036;-75
2024/01/24 03:54:25;;;;;;;38.13;9.60;;;13.20;65.80;;;;;;5028757;28;20049;-76
2024/01/24 03:56:51;;;;;;;39.85;10.48;;;13.20;65.80;;;;;;5041029;28;20029;-76
2024/01/24 03:59:18;;;;;;;30.63;8.05;;;13.20;65.80;;;;;;5028729;28;20039;-76
2024/01/24 04:01:43;;;;;;;30.38;9.13;;;13.20;65.80;;;;;;5027502;28;20032;-76
2024/01/24 04:04:09;;;;;;;26.83;8.40;;;13.20;65.80;;;;;;5042622;28;20044;-76
2024/01/24 04:06:35;;;;;;;34.03;8.18;;;13.20;65.80;;;;;;5026811;28;20040;-75
2024/01/24 04:09:03;;;;;;;26.65;9.25;;;13.20;65.80;;;;;;5036923;28;20577;-77
2024/01/24 04:11:30;;;;;;;35.63;7.85;;;13.20;65.80;;;;;;5026286;28;20044;-76
2024/01/24 04:13:56;;;;;;;41.17;10.07;;;13.20;65.90;;;;;;5029183;28;20052;-76
2024/01/24 04:16:22;;;;;;;31.27;8.57;;;13.20;65.90;;;;;;5026979;28;20033;-76
2024/01/24 04:18:51;;;;;;;29.42;8.90;;;13.20;65.90;;;;;;5033562;28;20061;-76
2024/01/24 04:21:17;;;;;;;33.90;9.10;;;13.20;66.00;;;;;;5040033;28;20124;-75
2024/01/24 04:23:44;;;;;;;30.27;8.73;;;13.20;65.90;;;;;;5044910;28;20490;-76
2024/01/24 04:26:14;;;;;;;27.65;9.02;;;13.20;65.90;;;;;;5043377;28;20060;-75
2024/01/24 04:28:44;;;;;;;37.72;9.13;;;13.20;66.00;;;;;;5045727;28;20407;-77
2024/01/24 04:31:10;;;;;;;30.38;9.57;;;13.20;65.90;;;;;;5046451;28;20499;-76
2024/01/24 04:33:36;;;;;;;33.63;8.60;;;13.20;65.90;;;;;;5028834;28;20032;-76
2024/01/24 04:36:03;;;;;;;35.03;8.98;;;13.20;65.90;;;;;;5045981;28;20047;-76
2024/01/24 04:38:29;;;;;;;39.20;10.63;;;13.20;65.90;;;;;;5040614;28;20024;-76
2024/01/24 04:40:54;;;;;;;30.02;7.82;;;13.20;65.90;;;;;;5028028;28;20575;-76
2024/01/24 04:43:21;;;;;;;32.83;8.10;;;13.20;65.90;;;;;;5045668;28;20025;-77
2024/01/24 04:45:48;;;;;;;31.00;8.90;;;13.20;65.80;;;;;;5044602;28;20499;-75
2024/01/24 04:48:14;;;;;;;30.40;8.32;;;13.20;65.80;;;;;;5046441;28;20045;-77
2024/01/24 04:50:40;;;;;;;28.80;8.93;;;13.20;65.80;;;;;;5027238;28;20040;-76
2024/01/24 04:53:06;;;;;;;38.28;9.57;;;13.20;65.80;;;;;;5042306;28;20032;-75
2024/01/24 04:55:32;;;;;;;29.10;8.55;;;13.20;65.80;;;;;;5044754;28;20036;-74
2024/01/24 04:57:59;;;;;;;38.72;9.35;;;13.10;65.60;;;;;;5047252;28;20058;-76
2024/01/24 05:00:26;;;;;;;28.88;7.80;;;13.20;65.80;;;;;;5045261;28;20033;-76
2024/01/24 05:02:52;;;;;;;27.23;7.20;;;13.20;65.80;;;;;;5036519;28;20034;-75
2024/01/24 05:05:17;;;;;;;29.20;8.75;;;13.10;65.70;;;;;;5042620;28;20511;-76
2024/01/24 05:07:44;;;;;;;31.20;7.80;;;13.20;65.80;;;;;;5040025;28;20131;-73
2024/01/24 05:10:10;;;;;;;33.20;10.10;;;13.10;65.70;;;;;;5041774;28;20029;-77
2024/01/24 05:12:36;;;;;;;29.20;7.50;;;13.20;65.90;;;;;;5040784;28;20428;-75
2024/01/24 05:15:07;;;;;;;30.17;8.80;;;13.10;65.70;;;;;;5006541;28;20224;-76
2024/01/24 05:17:34;;;;;;;31.13;7.57;;;13.20;65.90;;;;;;5030388;28;20445;-76
2024/01/24 05:19:59;;;;;;;26.83;7.55;;;13.10;65.70;;;;;;5048161;28;20332;-77
2024/01/24 05:22:26;;;;;;;28.98;8.13;;;13.10;65.70;;;;;;5049341;28;20025;-76
2024/01/24 05:24:55;;;;;;;39.33;9.63;;;13.10;65.80;;;;;;5028128;28;20480;-77
2024/01/24 05:27:22;;;;;;;32.38;9.90;;;13.10;65.80;;;;;;5027990;28;20048;-76
2024/01/24 05:29:48;;;;;;;24.67;7.97;;;13.10;65.80;;;;;;5043404;28;20556;-75
2024/01/24 05:32:14;;;;;;;22.42;7.80;;;13.10;65.90;;;;;;5050290;28;20391;-75
2024/01/24 05:34:40;;;;;;;29.85;6.43;;;13.10;65.90;;;;;;5049362;28;20033;-76
2024/01/24 05:37:06;;;;;;;25.95;6.93;;;13.10;65.90;;;;;;5033945;28;20369;-76
2024/01/24 05:39:33;;;;;;;26.83;6.97;;;13.10;65.90;;;;;;5047989;28;20036;-74
2024/01/24 05:42:02;;;;;;;25.13;7.50;;;13.10;65.90;;;;;;5047416;28;20067;-77
2024/01/24 05:44:28;;;;;;;31.38;7.45;;;13.10;66.00;;;;;;5045595;28;20053;-75
2024/01/24 05:46:54;;;;;;;29.95;8.68;;;13.10;65.90;;;;;;5023169;28;20080;-78
2024/01/24 05:49:20;;;;;;;23.70;7.28;;;13.10;65.90;;;;;;5030829;28;20111;-77
2024/01/24 05:51:46;;;;;;;28.42;8.25;;;13.10;65.90;;;;;;5044923;28;20601;-76
2024/01/24 05:54:12;;;;;;;24.52;6.78;;;13.20;66.10;;;;;;5044716;28;20097;-76
2024/01/24 05:56:38;;;;;;;32.33;8.23;;;13.10;65.90;;;;;;5044090;28;20032;-76
2024/01/24 05:59:04;;;;;;;25.52;6.43;;;13.10;65.90;;;;;;5032276;28;20376;-76
2024/01/24 06:01:30;;;;;;;32.72;7.53;;;13.10;66.00;;;;;;5036519;28;20093;-75
2024/01/24 06:03:56;;;;;;;20.65;7.03;;;13.10;66.00;;;;;;5020608;28;20108;-77
2024/01/24 06:06:24;;;;;;;34.45;7.88;;;13.10;66.00;;;;;;5006963;28;20036;-77
2024/01/24 06:08:50;;;;;;;23.13;7.63;;;13.10;66.00;;;;;;5019015;28;20258;-75
2024/01/24 06:11:17;;;;;;;25.23;7.22;;;13.10;66.00;;;;;;5036596;28;20375;-76
2024/01/24 06:13:43;;;;;;;27.13;7.03;;;13.10;66.00;;;;;;5038938;28;20029;-77
2024/01/24 06:16:10;;;;;;;25.20;7.32;;;13.10;66.00;;;;;;5036631;28;20033;-75
2024/01/24 06:18:36;;;;;;;27.85;7.45;;;13.20;66.20;;;;;;5042608;28;20067;-75
2024/01/24 06:21:02;;;;;;;25.85;5.75;;;13.10;66.00;;;;;;5035579;28;20033;-76
2024/01/24 06:23:28;;;;;;;28.02;7.32;;;13.20;66.20;;;;;;5044408;28;20034;-76
2024/01/24 06:25:54;;;;;;;23.83;7.07;;;13.10;66.00;;;;;;5039242;28;20028;-76
2024/01/24 06:28:20;;;;;;;25.42;8.38;;;13.20;66.20;;;;;;5008845;28;20424;-76
2024/01/24 06:30:47;;;;;;;22.40;6.45;;;13.20;66.20;;;;;;5046161;28;20060;-75
2024/01/24 06:33:13;;;;;;;27.95;6.43;;;13.20;66.20;;;;;;5044168;28;20106;-75
2024/01/24 06:35:38;;;;;;;26.63;7.85;;;13.20;66.20;;;;;;5017834;28;20029;-76
2024/01/24 06:38:04;;;;;;;21.13;5.55;;;13.20;66.20;;;;;;5039151;28;20119;-76
2024/01/24 06:40:31;;;;;;;21.70;6.22;;;13.20;66.10;;;;;;5038222;28;20559;-76
2024/01/24 06:42:56;;;;;;;27.65;7.30;;;13.20;66.10;;;;;;5041167;28;20075;-78
2024/01/24 06:45:22;;;;;;;24.77;8.55;;;13.20;66.20;;;;;;5028962;28;20033;-78
2024/01/24 06:47:51;;;;;;;29.10;8.18;;;13.20;66.20;;;;;;5042404;28;20049;-77
2024/01/24 06:50:20;;;;;;;33.67;10.00;;;13.20;66.20;;;;;;5054430;28;20029;-76
2024/01/24 06:52:46;;;;;;;34.15;9.32;;;13.20;66.40;;;;;;5035667;28;20044;-73
2024/01/24 06:55:13;;;;;;;35.78;9.43;;;13.20;66.50;;;;;;5033677;28;20498;-75
2024/01/24 06:57:39;;;;;;;49.90;13.23;;;13.20;66.70;;;;;;5034863;28;20107;-76
2024/01/24 07:00:06;;;;;;;50.40;14.50;;;13.20;66.90;;;;;;5018147;28;20532;-77
2024/01/24 07:02:34;;;;;;;47.35;11.05;;;13.30;67.30;;;;;;5037033;28;20043;-77
2024/01/24 07:05:02;;;;;;;45.55;12.05;;;13.30;67.50;;;;;;5015538;28;20484;-76
2024/01/24 07:07:29;;;;;;;46.83;13.75;;;13.30;67.60;;;;;;5013087;28;20158;-76
2024/01/24 07:09:55;;;;;;;50.17;12.15;;;13.30;67.70;;;;;;5030958;28;20036;-77
2024/01/24 07:12:21;;;;;;;42.28;13.50;;;13.30;67.70;;;;;;5033073;28;20037;-77
2024/01/24 07:14:50;;;;;;;46.17;11.38;;;13.30;67.70;;;;;;5038270;28;20036;-78
2024/01/24 07:17:19;;;;;;;45.70;10.95;;;13.40;67.90;;;;;;5033134;28;20029;-77
2024/01/24 07:19:45;;;;;;;43.33;12.82;;;13.30;67.70;;;;;;5040895;28;20060;-77
2024/01/24 07:22:11;;;;;;;40.75;10.55;;;13.30;67.70;;;;;;5033561;28;20078;-77
2024/01/24 07:24:37;;;;;;;38.45;9.50;;;13.30;67.70;;;;;;5041873;28;20037;-79
2024/01/24 07:27:03;;;;;;;30.33;10.32;;;13.20;67.50;;;;;;5025320;28;20084;-78
2024/01/24 07:29:30;;;;;;;33.25;8.80;;;13.20;67.60;;;;;;5020169;28;20064;-78
2024/01/24 07:31:56;;;;;;;29.75;8.13;;;13.10;67.50;;;;;;5019168;28;20384;-79
2024/01/24 07:34:24;;;;;;;30.00;7.93;;;13.10;67.60;;;;;;5033614;28;20042;-77
2024/01/24 07:36:50;;;;;;;34.17;9.60;;;13.10;67.80;;;;;;5019517;28;20037;-79
2024/01/24 07:39:16;;;;;;;34.75;7.85;;;13.00;67.80;;;;;;5033856;28;20151;-78
2024/01/24 07:41:42;;;;;;;31.33;7.40;;;13.00;67.80;;;;;;5028581;28;20075;-77
2024/01/24 07:44:09;;;;;;;35.22;7.50;;;13.00;67.90;;;;;;5027542;28;20039;-78
2024/01/24 07:46:42;;;;;;;32.38;7.25;;;13.00;68.00;;;;;;5010563;28;20053;-79
2024/01/24 07:49:09;;;;;;;31.85;6.72;;;13.00;68.00;;;;;;5034573;28;20230;-78
2024/01/24 07:51:40;;;;;;;31.10;7.88;;;13.00;68.00;;;;;;5008790;28;20103;-77
2024/01/24 07:54:06;;;;;;;28.33;7.35;;;13.00;68.00;;;;;;5020667;28;20115;-79
2024/01/24 07:56:32;;;;;;;25.52;7.20;;;12.90;67.90;;;;;;5022710;28;20050;-81
2024/01/24 07:59:00;;;;;;;29.48;7.53;;;12.90;67.90;;;;;;5019959;28;20136;-77
2024/01/24 08:01:26;;;;;;;27.92;6.78;;;12.90;67.90;;;;;;5018820;28;20389;-76
2024/01/24 08:03:53;;;;;;;25.95;6.65;;;12.90;67.90;;;;;;5006646;28;20139;-76
2024/01/24 08:06:19;;;;;;;23.88;7.13;;;13.00;68.00;;;;;;5030603;28;20037;-78
2024/01/24 08:08:45;;;;;;;30.48;8.98;;;12.90;67.80;;;;;;5034192;28;20042;-78
2024/01/24 08:11:11;;;;;;;29.58;8.50;;;12.90;67.80;;;;;;5034861;28;20032;-78
2024/01/24 08:13:37;;;;;;;29.60;8.27;;;13.00;67.90;;;;;;5021522;28;20029;-78
2024/01/24 08:16:04;;;;;;;26.98;8.73;;;13.00;67.90;;;;;;5020810;28;20036;-79
2024/01/24 08:18:30;;;;;;;30.20;7.35;;;13.00;67.90;;;;;;5037944;28;20075;-77
2024/01/24 08:20:56;;;;;;;26.30;7.68;;;13.00;68.20;;;;;;5018095;28;21435;-78
2024/01/24 08:23:22;;;;;;;25.77;6.45;;;13.00;67.80;;;;;;5039586;28;20761;-80
2024/01/24 08:25:48;;;;;;;30.10;7.75;;;13.00;67.70;;;;;;5036085;28;20412;-78
2024/01/24 08:28:15;;;;;;;27.08;6.70;;;13.10;67.90;;;;;;5035641;28;20045;-79
2024/01/24 08:30:41;;;;;;;32.38;7.65;;;13.10;67.80;;;;;;5002109;28;20047;-78
2024/01/24 08:33:11;;;;;;;32.78;7.53;;;13.10;67.80;;;;;;5016640;28;20047;-79
2024/01/24 08:35:37;;;;;;;28.27;8.82;;;13.10;67.60;;;;;;4993122;28;20036;-79
2024/01/24 08:38:04;;;;;;;32.47;6.72;;;13.20;67.70;;;;;;5030421;28;20043;-79
2024/01/24 08:40:30;;;;;;;28.02;7.25;;;13.20;67.60;;;;;;5026044;28;20025;-79
2024/01/24 08:42:56;;;;;;;32.08;6.80;;;13.20;67.70;;;;;;5029949;28;20256;-78
2024/01/24 08:45:23;;;;;;;26.27;7.50;;;13.20;67.60;;;;;;5029935;28;20036;-78
2024/01/24 08:47:50;;;;;;;29.95;7.75;;;13.20;67.50;;;;;;5019525;28;20606;-79
2024/01/24 08:50:16;;;;;;;23.67;6.25;;;13.30;67.60;;;;;;5016792;28;20484;-77
2024/01/24 08:52:45;;;;;;;23.77;6.97;;;13.30;67.50;;;;;;5048719;28;20025;-78
2024/01/24 08:55:13;;;;;;;27.55;8.23;;;13.30;67.40;;;;;;5065524;28;20029;-78
2024/01/24 08:57:41;;;;;;;30.20;7.15;;;13.30;67.30;;;;;;5029563;28;20072;-77
2024/01/24 09:00:08;;;;;;;25.10;6.47;;;13.30;67.20;;;;;;5051636;28;20064;-75
2024/01/24 09:02:34;;;;;;;29.70;7.72;;;13.30;67.20;;;;;;5064058;28;20355;-78
2024/01/24 09:05:01;;;;;;;27.05;7.38;;;13.30;67.10;;;;;;5034295;28;20025;-76
2024/01/24 09:07:30;;;;;;;25.90;5.95;;;13.40;67.20;;;;;;5029582;28;20271;-76
2024/01/24 09:09:57;;;;;;;29.40;7.72;;;13.40;67.10;;;;;;5045651;28;20029;-74
2024/01/24 09:12:27;;;;;;;27.30;7.35;;;13.40;67.10;;;;;;5034606;28;20032;-77
2024/01/24 09:14:53;;;;;;;25.23;7.95;;;13.40;67.00;;;;;;5036511;28;20040;-75
2024/01/24 09:17:19;;;;;;;24.42;6.50;;;13.40;67.30;;;;;;5052617;28;20025;-76
2024/01/24 09:19:46;;;;;;;19.17;6.15;;;13.40;66.90;;;;;;5019066;28;20069;-77
2024/01/24 09:22:12;;;;;;;28.63;6.07;;;13.40;66.90;;;;;;5050127;28;20033;-76
2024/01/24 09:24:39;;;;;;;26.92;6.75;;;13.40;66.80;;;;;;5036230;28;20388;-76
2024/01/24 09:27:06;;;;;;;23.05;6.35;;;13.40;66.80;;;;;;5054697;28;20059;-76
2024/01/24 09:29:35;;;;;;;28.20;7.65;;;13.40;66.70;;;;;;5053799;28;20093;-76
2024/01/24 09:32:01;;;;;;;25.05;8.40;;;13.40;66.70;;;;;;5058860;28;20051;-76
2024/01/24 09:34:27;;;;;;;27.33;6.90;;;13.50;66.70;;;;;;5054907;28;20040;-75
2024/01/24 09:36:54;;;;;;;25.05;7.97;;;13.50;66.70;;;;;;5035647;28;20036;-76
2024/01/24 09:39:21;;;;;;;24.00;6.55;;;13.50;66.60;;;;;;5056809;28;20072;-76
2024/01/24 09:41:51;;;;;;;29.25;6.60;;;13.50;66.50;;;;;;5034475;28;20044;-78
2024/01/24 09:44:19;;;;;;;26.13;7.88;;;13.50;66.40;;;;;;5035354;28;20378;-78
2024/01/24 09:46:48;;;;;;;26.48;6.28;;;13.60;66.50;;;;;;5013813;28;20056;-78
2024/01/24 09:49:17;;;;;;;20.25;6.35;;;13.60;66.40;;;;;;5016173;28;20136;-77
2024/01/24 09:51:47;;;;;;;26.73;7.55;;;13.70;66.50;;;;;;5020438;28;20582;-77
2024/01/24 09:54:16;;;;;;;20.98;5.82;;;13.70;66.40;;;;;;5002360;28;20044;-77
2024/01/24 09:56:44;;;;;;;30.13;7.28;;;13.80;66.50;;;;;;5040388;28;20037;-76
2024/01/24 09:59:11;;;;;;;15.05;3.97;;;13.80;66.30;;;;;;5026438;28;20040;-75
2024/01/24 10:01:40;;;;;;;15.63;4.50;;;13.90;66.50;;;;;;5042932;28;20470;-74
2024/01/24 10:04:07;;;;;;;19.38;4.75;;;14.00;66.60;;;;;;5038610;28;20563;-74
2024/01/24 10:06:39;;;;;;;13.07;4.57;;;14.10;66.60;;;;;;5026785;28;20041;-75
2024/01/24 10:09:06;;;;;;;13.25;4.32;;;14.30;66.60;;;;;;5036240;28;20044;-75
2024/01/24 10:11:32;;;;;;;17.27;5.72;;;14.50;66.40;;;;;;5039399;28;20509;-74
2024/01/24 10:13:58;;;;;;;13.18;4.47;;;14.70;66.20;;;;;;5040196;28;20032;-76
2024/01/24 10:16:25;;;;;;;15.38;4.53;;;14.90;66.00;;;;;;5038791;28;20368;-75
2024/01/24 10:18:55;;;;;;;14.00;3.78;;;15.10;65.70;;;;;;5038702;28;20588;-76
2024/01/24 10:21:22;;;;;;;14.77;4.25;;;15.30;65.50;;;;;;5029345;28;20033;-75
2024/01/24 10:23:48;;;;;;;17.25;4.60;;;15.50;65.30;;;;;;5039757;28;20033;-74
2024/01/24 10:26:16;;;;;;;14.23;4.25;;;15.70;65.10;;;;;;5016213;28;20044;-75
2024/01/24 10:28:45;;;;;;;11.50;3.35;;;15.90;64.80;;;;;;5039194;28;20125;-74
2024/01/24 10:31:12;;;;;;;13.50;5.15;;;16.00;64.50;;;;;;5034780;28;20033;-76
2024/01/24 10:33:39;;;;;;;14.98;5.15;;;16.20;64.30;;;;;;5047200;28;20210;-74
2024/01/24 10:36:08;;;;;;;14.98;3.92;;;16.30;64.00;;;;;;5026457;28;20056;-75
2024/01/24 10:38:38;;;;;;;13.32;3.72;;;16.40;63.60;;;;;;5043113;28;20056;-75
2024/01/24 10:41:08;;;;;;;16.48;4.20;;;16.50;63.40;;;;;;5031316;28;20039;-75
2024/01/24 10:43:40;;;;;;;19.35;5.90;;;16.70;63.30;;;;;;5019017;28;20033;-73
2024/01/24 10:46:07;;;;;;;13.30;4.22;;;16.80;63.20;;;;;;5031529;28;20029;-74
2024/01/24 10:48:34;;;;;;;9.45;4.43;;;16.90;62.90;;;;;;5039090;28;20468;-75
2024/01/24 10:51:01;;;;;;;12.77;5.32;;;17.00;62.70;;;;;;5024535;28;20213;-76
2024/01/24 10:53:30;;;;;;;13.15;3.83;;;17.10;62.50;;;;;;5000253;28;20203;-77
2024/01/24 10:55:57;;;;;;;14.20;4.05;;;17.20;62.30;;;;;;5017071;28;20024;-76
2024/01/24 10:58:25;;;;;;;15.70;4.03;;;17.30;62.10;;;;;;5039995;28;20033;-76
2024/01/24 11:00:52;;;;;;;17.05;4.53;;;17.30;61.80;;;;;;5015606;28;20024;-76
2024/01/24 11:03:18;;;;;;;12.43;4.47;;;17.40;61.70;;;;;;5038152;28;20043;-76
2024/01/24 11:05:50;;;;;;;15.13;4.90;;;17.40;61.40;;;;;;5038289;28;20076;-75
2024/01/24 11:08:31;;;;;;;14.48;4.25;;;17.50;61.20;;;;;;5041253;28;20166;-76
2024/01/24 11:11:04;;;;;;;15.57;5.22;;;17.60;60.90;;;;;;5023115;28;20124;-75
2024/01/24 11:13:34;;;;;;;13.90;4.65;;;17.60;60.80;;;;;;5000238;28;20056;-75
2024/01/24 11:16:00;;;;;;;18.70;5.43;;;17.70;60.70;;;;;;5029198;28;20099;-76
2024/01/24 11:18:33;;;;;;;13.30;4.60;;;17.70;60.50;;;;;;5034973;28;20483;-75
2024/01/24 11:21:00;;;;;;;;;;;17.80;60.40;;;;;;5017410;28;20156;-76
2024/01/24 11:23:44;;;;;;;14.13;4.57;;;17.80;60.40;;;;;;5033612;28;20104;-76
2024/01/24 11:26:13;;;;;;;19.27;6.00;;;17.80;60.30;;;;;;5039857;28;20029;-76
2024/01/24 11:28:39;;;;;;;14.05;6.28;;;17.80;60.20;;;;;;5026151;28;20060;-77
2024/01/24 11:31:07;;;;;;;14.27;4.57;;;17.80;60.00;;;;;;5038863;28;20037;-76
2024/01/24 11:33:33;;;;;;;11.95;4.35;;;17.80;59.80;;;;;;5038923;28;20136;-76
2024/01/24 11:36:01;;;;;;;15.63;4.75;;;17.80;59.60;;;;;;5025717;28;20064;-76
2024/01/24 11:38:27;;;;;;;14.50;5.75;;;17.80;59.40;;;;;;5035811;28;20041;-76
2024/01/24 11:41:00;;;;;;;13.60;4.30;;;17.70;59.40;;;;;;5035559;28;20075;-75
2024/01/24 11:43:31;;;;;;;12.57;4.28;;;17.80;59.00;;;;;;5030730;28;20066;-76
2024/01/24 11:46:01;;;;;;;11.57;3.20;;;17.70;58.70;;;;;;5052687;28;20136;-76
2024/01/24 11:48:28;;;;;;;15.27;4.53;;;17.70;58.50;;;;;;5053738;28;20358;-76
2024/01/24 11:51:01;;;;;;;12.68;4.25;;;17.80;58.60;;;;;;5040620;28;20032;-76
2024/01/24 11:53:28;;;;;;;12.10;4.38;;;17.80;58.40;;;;;;5031439;28;20037;-76
2024/01/24 11:55:57;;;;;;;13.60;4.07;;;17.80;58.20;;;;;;5052554;28;20288;-76
2024/01/24 11:58:28;;;;;;;12.85;4.38;;;17.80;58.10;;;;;;5030757;28;20044;-76
2024/01/24 12:00:56;;;;;;;13.77;4.55;;;17.90;58.20;;;;;;5041912;28;20028;-75
2024/01/24 12:03:23;;;;;;;16.10;4.43;;;17.90;58.00;;;;;;5025570;28;20300;-76
2024/01/24 12:05:49;;;;;;;13.27;4.68;;;17.90;57.90;;;;;;5008918;28;20043;-76
2024/01/24 12:08:17;;;;;;;19.05;5.30;;;17.90;58.00;;;;;;5037403;28;20086;-76
2024/01/24 12:10:44;;;;;;;15.35;4.25;;;17.90;58.00;;;;;;5038869;28;20439;-77
2024/01/24 12:13:12;;;;;;;20.02;6.90;;;17.90;58.10;;;;;;5028296;28;20037;-76
2024/01/24 12:15:42;;;;;;;14.20;3.15;;;17.90;58.10;;;;;;5015775;28;20067;-75
2024/01/24 12:18:09;;;;;;;15.50;4.60;;;17.90;58.20;;;;;;5030379;28;20036;-77
2024/01/24 12:20:37;;;;;;;14.73;4.72;;;17.90;58.30;;;;;;4997860;28;20025;-75
2024/01/24 12:23:04;;;;;;;12.60;3.47;;;17.80;58.20;;;;;;5004162;28;20078;-76
2024/01/24 12:25:31;;;;;;;16.10;5.25;;;17.90;58.40;;;;;;5027102;28;20238;-76
2024/01/24 12:27:57;;;;;;;12.95;4.15;;;17.90;58.40;;;;;;5030991;28;20090;-76
2024/01/24 12:30:32;;;;;;;18.60;4.68;;;17.90;58.40;;;;;;5030524;28;20029;-77
2024/01/24 12:32:59;;;;;;;10.48;4.13;;;17.90;58.40;;;;;;5015529;28;20120;-74
2024/01/24 12:35:28;;;;;;;15.57;4.15;;;18.00;58.60;;;;;;5034859;28;20444;-73